PWSweather.com
Personal Weather Stations
Station Observations
IBAVARIA50
Munich, PlieningDE 85652

MunichPlieningDE 85652

Lat: 48.19916153, Lon: 11.79794312

Elevation: 504

Station Type: Davis Vantage Pro2

http://wetterstation-pliening.info

High Low Average
Temperature 89.2°F31.8°C 64.0°F17.8°C 72.3°F22.4°C
Dew Point 64.8°F18.2°C 57.5°F14.2°C 61.2°F16.2°C
Winds 22.0 mph 35.4 kmh Calm Calm 3.0 mph SSW4.8 kmh SSW
Wind Gusts 33.0 mph53.1 kmh -- 7.0 mph11.3 kmh
Humidity 94% 36% 72%
Pressure 29.85 in1010.8 mb 29.69 in1005.4 mb -
Precipitation 0.19 in4.8 mm - -
Hour Temp Dew Point Humidity Winds Wind Gusts Pressure Precip Precip Rate Daily Precip Total
12:00 AM 69.0°F20.6°C 58.7°F14.8°C 70% 4.0 mph SSE6.4 kmh SSE 5.0 mph8.0 kmh 29.83 in1010.2 mb 0.00 in0.0 mm 0.00 in0.0 mm 0.00 in0.0 mm
12:05 AM 68.9°F20.5°C 58.7°F14.8°C 70% 3.0 mph SE4.8 kmh SE 4.0 mph6.4 kmh 29.82 in1009.8 mb 0.00 in0.0 mm 0.00 in0.0 mm 0.00 in0.0 mm
12:10 AM 68.8°F20.4°C 59.0°F15.0°C 71% 4.0 mph S6.4 kmh S 6.0 mph9.7 kmh 29.82 in1009.8 mb 0.00 in0.0 mm 0.00 in0.0 mm 0.00 in0.0 mm
12:15 AM 68.6°F20.3°C 59.2°F15.1°C 72% 4.0 mph SSE6.4 kmh SSE 5.0 mph8.0 kmh 29.82 in1009.8 mb 0.00 in0.0 mm 0.00 in0.0 mm 0.00 in0.0 mm
12:20 AM 68.6°F20.3°C 59.5°F15.3°C 73% 4.0 mph SSW6.4 kmh SSW 5.0 mph8.0 kmh 29.82 in1009.8 mb 0.00 in0.0 mm 0.00 in0.0 mm 0.00 in0.0 mm
12:25 AM 68.6°F20.3°C 59.5°F15.3°C 73% 3.0 mph S4.8 kmh S 5.0 mph8.0 kmh 29.82 in1009.8 mb 0.00 in0.0 mm 0.00 in0.0 mm 0.00 in0.0 mm
12:30 AM 68.5°F20.3°C 59.8°F15.4°C 74% 1.0 mph SSE1.6 kmh SSE 5.0 mph8.0 kmh 29.82 in1009.8 mb 0.00 in0.0 mm 0.00 in0.0 mm 0.00 in0.0 mm
12:35 AM 68.4°F20.2°C 59.7°F15.4°C 74% 3.0 mph WSW4.8 kmh WSW 5.0 mph8.0 kmh 29.83 in1010.2 mb 0.00 in0.0 mm 0.00 in0.0 mm 0.00 in0.0 mm
12:40 AM 68.2°F20.1°C 60.3°F15.7°C 76% 4.0 mph S6.4 kmh S 6.0 mph9.7 kmh 29.82 in1009.8 mb 0.00 in0.0 mm 0.00 in0.0 mm 0.00 in0.0 mm
12:45 AM 68.0°F20.0°C 60.1°F15.6°C 76% 2.0 mph SSE3.2 kmh SSE 6.0 mph9.7 kmh 29.82 in1009.8 mb 0.00 in0.0 mm 0.00 in0.0 mm 0.00 in0.0 mm
12:50 AM 67.8°F19.9°C 60.3°F15.7°C 77% 3.0 mph WSW4.8 kmh WSW 4.0 mph6.4 kmh 29.82 in1009.8 mb 0.00 in0.0 mm 0.00 in0.0 mm 0.00 in0.0 mm
12:55 AM 67.7°F19.8°C 60.2°F15.7°C 77% 4.0 mph S6.4 kmh S 6.0 mph9.7 kmh 29.82 in1009.8 mb 0.00 in0.0 mm 0.00 in0.0 mm 0.00 in0.0 mm
01:00 AM 67.5°F19.7°C 60.3°F15.7°C 78% 1.0 mph S1.6 kmh S 5.0 mph8.0 kmh 29.82 in1009.8 mb 0.00 in0.0 mm 0.00 in0.0 mm 0.00 in0.0 mm
01:05 AM 67.6°F19.8°C 60.1°F15.6°C 77% 5.0 mph S8.0 kmh S 7.0 mph11.3 kmh 29.82 in1009.8 mb 0.00 in0.0 mm 0.00 in0.0 mm 0.00 in0.0 mm
01:10 AM 67.6°F19.8°C 60.1°F15.6°C 77% 4.0 mph S6.4 kmh S 6.0 mph9.7 kmh 29.82 in1009.8 mb 0.00 in0.0 mm 0.00 in0.0 mm 0.00 in0.0 mm
01:15 AM 67.7°F19.8°C 60.2°F15.7°C 77% 4.0 mph SSE6.4 kmh SSE 5.0 mph8.0 kmh 29.82 in1009.8 mb 0.00 in0.0 mm 0.00 in0.0 mm 0.00 in0.0 mm
01:20 AM 67.7°F19.8°C 60.2°F15.7°C 77% 1.0 mph SE1.6 kmh SE 5.0 mph8.0 kmh 29.81 in1009.5 mb 0.00 in0.0 mm 0.00 in0.0 mm 0.00 in0.0 mm
01:25 AM 67.6°F19.8°C 60.1°F15.6°C 77% 3.0 mph S4.8 kmh S 5.0 mph8.0 kmh 29.81 in1009.5 mb 0.00 in0.0 mm 0.00 in0.0 mm 0.00 in0.0 mm
01:30 AM 67.7°F19.8°C 60.2°F15.7°C 77% 3.0 mph S4.8 kmh S 5.0 mph8.0 kmh 29.81 in1009.5 mb 0.00 in0.0 mm 0.00 in0.0 mm 0.00 in0.0 mm
01:35 AM 67.6°F19.8°C 60.1°F15.6°C 77% 3.0 mph SSE4.8 kmh SSE 4.0 mph6.4 kmh 29.81 in1009.5 mb 0.00 in0.0 mm 0.00 in0.0 mm 0.00 in0.0 mm
01:40 AM 67.6°F19.8°C 60.1°F15.6°C 77% 1.0 mph S1.6 kmh S 4.0 mph6.4 kmh 29.81 in1009.5 mb 0.00 in0.0 mm 0.00 in0.0 mm 0.00 in0.0 mm
01:45 AM 67.5°F19.7°C 60.0°F15.6°C 77% 2.0 mph SE3.2 kmh SE 4.0 mph6.4 kmh 29.81 in1009.5 mb 0.00 in0.0 mm 0.00 in0.0 mm 0.00 in0.0 mm
01:50 AM 67.5°F19.7°C 60.0°F15.6°C 77% 2.0 mph SSE3.2 kmh SSE 4.0 mph6.4 kmh 29.81 in1009.5 mb 0.00 in0.0 mm 0.00 in0.0 mm 0.00 in0.0 mm
01:55 AM 67.3°F19.6°C 59.8°F15.4°C 77% 1.0 mph S1.6 kmh S 4.0 mph6.4 kmh 29.81 in1009.5 mb 0.00 in0.0 mm 0.00 in0.0 mm 0.00 in0.0 mm
02:00 AM 67.2°F19.6°C 59.7°F15.4°C 77% 1.0 mph SSE1.6 kmh SSE 3.0 mph4.8 kmh 29.81 in1009.5 mb 0.00 in0.0 mm 0.00 in0.0 mm 0.00 in0.0 mm
02:05 AM 67.1°F19.5°C 60.0°F15.6°C 78% 3.0 mph SSE4.8 kmh SSE 3.0 mph4.8 kmh 29.81 in1009.5 mb 0.00 in0.0 mm 0.00 in0.0 mm 0.00 in0.0 mm
02:10 AM 67.0°F19.4°C 59.9°F15.5°C 78% 3.0 mph SSE4.8 kmh SSE 3.0 mph4.8 kmh 29.81 in1009.5 mb 0.00 in0.0 mm 0.00 in0.0 mm 0.00 in0.0 mm
02:15 AM 66.8°F19.3°C 59.7°F15.4°C 78% 4.0 mph SSE6.4 kmh SSE 4.0 mph6.4 kmh 29.80 in1009.1 mb 0.00 in0.0 mm 0.00 in0.0 mm 0.00 in0.0 mm
02:20 AM 66.6°F19.2°C 59.5°F15.3°C 78% 3.0 mph SSE4.8 kmh SSE 4.0 mph6.4 kmh 29.81 in1009.5 mb 0.00 in0.0 mm 0.00 in0.0 mm 0.00 in0.0 mm
02:25 AM 66.5°F19.2°C 59.4°F15.2°C 78% 1.0 mph S1.6 kmh S 4.0 mph6.4 kmh 29.80 in1009.1 mb 0.00 in0.0 mm 0.00 in0.0 mm 0.00 in0.0 mm
02:30 AM 66.4°F19.1°C 59.3°F15.2°C 78% 1.0 mph SE1.6 kmh SE 4.0 mph6.4 kmh 29.80 in1009.1 mb 0.00 in0.0 mm 0.00 in0.0 mm 0.00 in0.0 mm
02:35 AM 66.5°F19.2°C 59.4°F15.2°C 78% 2.0 mph SE3.2 kmh SE 3.0 mph4.8 kmh 29.80 in1009.1 mb 0.00 in0.0 mm 0.00 in0.0 mm 0.00 in0.0 mm
02:40 AM 66.3°F19.1°C 59.2°F15.1°C 78% Calm Calm 2.0 mph3.2 kmh 29.80 in1009.1 mb 0.00 in0.0 mm 0.00 in0.0 mm 0.00 in0.0 mm
02:45 AM 66.2°F19.0°C 59.1°F15.1°C 78% 1.0 mph SSE1.6 kmh SSE 2.0 mph3.2 kmh 29.80 in1009.1 mb 0.00 in0.0 mm 0.00 in0.0 mm 0.00 in0.0 mm
02:50 AM 66.2°F19.0°C 59.1°F15.1°C 78% Calm Calm 2.0 mph3.2 kmh 29.80 in1009.1 mb 0.00 in0.0 mm 0.00 in0.0 mm 0.00 in0.0 mm
02:55 AM 66.1°F18.9°C 59.3°F15.2°C 79% 1.0 mph SSE1.6 kmh SSE 1.0 mph1.6 kmh 29.80 in1009.1 mb 0.00 in0.0 mm 0.00 in0.0 mm 0.00 in0.0 mm
03:00 AM 66.1°F18.9°C 59.0°F15.0°C 78% 1.0 mph SSE1.6 kmh SSE 2.0 mph3.2 kmh 29.80 in1009.1 mb 0.00 in0.0 mm 0.00 in0.0 mm 0.00 in0.0 mm
03:05 AM 66.0°F18.9°C 59.2°F15.1°C 79% Calm Calm 1.0 mph1.6 kmh 29.80 in1009.1 mb 0.00 in0.0 mm 0.00 in0.0 mm 0.00 in0.0 mm
03:10 AM 66.0°F18.9°C 59.2°F15.1°C 79% 2.0 mph SSE3.2 kmh SSE 2.0 mph3.2 kmh 29.79 in1008.8 mb 0.00 in0.0 mm 0.00 in0.0 mm 0.00 in0.0 mm
03:15 AM 65.8°F18.8°C 59.0°F15.0°C 79% 2.0 mph SE3.2 kmh SE 3.0 mph4.8 kmh 29.79 in1008.8 mb 0.00 in0.0 mm 0.00 in0.0 mm 0.00 in0.0 mm
03:20 AM 65.7°F18.7°C 59.0°F15.0°C 79% 2.0 mph SE3.2 kmh SE 3.0 mph4.8 kmh 29.79 in1008.8 mb 0.00 in0.0 mm 0.00 in0.0 mm 0.00 in0.0 mm
03:25 AM 65.7°F18.7°C 59.0°F15.0°C 79% 1.0 mph S1.6 kmh S 3.0 mph4.8 kmh 29.79 in1008.8 mb 0.00 in0.0 mm 0.00 in0.0 mm 0.00 in0.0 mm
03:30 AM 65.6°F18.7°C 58.9°F14.9°C 79% 2.0 mph SSE3.2 kmh SSE 3.0 mph4.8 kmh 29.79 in1008.8 mb 0.00 in0.0 mm 0.00 in0.0 mm 0.00 in0.0 mm
03:35 AM 65.6°F18.7°C 58.9°F14.9°C 79% 1.0 mph ESE1.6 kmh ESE 4.0 mph6.4 kmh 29.79 in1008.8 mb 0.00 in0.0 mm 0.00 in0.0 mm 0.00 in0.0 mm
03:40 AM 65.5°F18.6°C 58.8°F14.9°C 79% 4.0 mph SSE6.4 kmh SSE 4.0 mph6.4 kmh 29.79 in1008.8 mb 0.00 in0.0 mm 0.00 in0.0 mm 0.00 in0.0 mm
03:45 AM 65.4°F18.6°C 58.7°F14.8°C 79% 2.0 mph SSE3.2 kmh SSE 5.0 mph8.0 kmh 29.79 in1008.8 mb 0.00 in0.0 mm 0.00 in0.0 mm 0.00 in0.0 mm
03:50 AM 65.4°F18.6°C 58.7°F14.8°C 79% 1.0 mph SSE1.6 kmh SSE 5.0 mph8.0 kmh 29.78 in1008.5 mb 0.00 in0.0 mm 0.00 in0.0 mm 0.00 in0.0 mm
03:55 AM 65.4°F18.6°C 59.0°F15.0°C 80% 3.0 mph SSE4.8 kmh SSE 4.0 mph6.4 kmh 29.78 in1008.5 mb 0.00 in0.0 mm 0.00 in0.0 mm 0.00 in0.0 mm
04:00 AM 65.4°F18.6°C 59.0°F15.0°C 80% 3.0 mph SSE4.8 kmh SSE 6.0 mph9.7 kmh 29.78 in1008.5 mb 0.00 in0.0 mm 0.00 in0.0 mm 0.00 in0.0 mm
04:05 AM 65.4°F18.6°C 59.0°F15.0°C 80% 3.0 mph SE4.8 kmh SE 4.0 mph6.4 kmh 29.78 in1008.5 mb 0.00 in0.0 mm 0.00 in0.0 mm 0.00 in0.0 mm
04:10 AM 65.3°F18.5°C 58.9°F14.9°C 80% 4.0 mph SE6.4 kmh SE 4.0 mph6.4 kmh 29.78 in1008.5 mb 0.00 in0.0 mm 0.00 in0.0 mm 0.00 in0.0 mm
04:15 AM 65.2°F18.4°C 58.8°F14.9°C 80% Calm Calm 4.0 mph6.4 kmh 29.79 in1008.8 mb 0.00 in0.0 mm 0.00 in0.0 mm 0.00 in0.0 mm
04:20 AM 65.1°F18.4°C 58.7°F14.8°C 80% 1.0 mph SSE1.6 kmh SSE 2.0 mph3.2 kmh 29.79 in1008.8 mb 0.00 in0.0 mm 0.00 in0.0 mm 0.00 in0.0 mm
04:25 AM 65.0°F18.3°C 58.6°F14.8°C 80% Calm Calm 2.0 mph3.2 kmh 29.78 in1008.5 mb 0.00 in0.0 mm 0.00 in0.0 mm 0.00 in0.0 mm
04:30 AM 64.9°F18.3°C 58.9°F14.9°C 81% Calm Calm 2.0 mph3.2 kmh 29.79 in1008.8 mb 0.00 in0.0 mm 0.00 in0.0 mm 0.00 in0.0 mm
04:35 AM 64.8°F18.2°C 58.8°F14.9°C 81% Calm Calm -- 29.79 in1008.8 mb 0.00 in0.0 mm 0.00 in0.0 mm 0.00 in0.0 mm
04:40 AM 64.7°F18.2°C 58.7°F14.8°C 81% Calm Calm -- 29.79 in1008.8 mb 0.00 in0.0 mm 0.00 in0.0 mm 0.00 in0.0 mm
04:45 AM 64.7°F18.2°C 58.7°F14.8°C 81% Calm Calm -- 29.79 in1008.8 mb 0.00 in0.0 mm 0.00 in0.0 mm 0.00 in0.0 mm
04:50 AM 64.6°F18.1°C 58.6°F14.8°C 81% Calm Calm 2.0 mph3.2 kmh 29.79 in1008.8 mb 0.00 in0.0 mm 0.00 in0.0 mm 0.00 in0.0 mm
04:55 AM 64.5°F18.1°C 58.5°F14.7°C 81% Calm Calm 3.0 mph4.8 kmh 29.79 in1008.8 mb 0.00 in0.0 mm 0.00 in0.0 mm 0.00 in0.0 mm
05:00 AM 64.4°F18.0°C 58.4°F14.7°C 81% 2.0 mph SSE3.2 kmh SSE 2.0 mph3.2 kmh 29.78 in1008.5 mb 0.00 in0.0 mm 0.00 in0.0 mm 0.00 in0.0 mm
05:05 AM 64.4°F18.0°C 58.4°F14.7°C 81% Calm Calm 2.0 mph3.2 kmh 29.79 in1008.8 mb 0.00 in0.0 mm 0.00 in0.0 mm 0.00 in0.0 mm
05:10 AM 64.3°F17.9°C 58.3°F14.6°C 81% Calm Calm 2.0 mph3.2 kmh 29.79 in1008.8 mb 0.00 in0.0 mm 0.00 in0.0 mm 0.00 in0.0 mm
05:15 AM 64.2°F17.9°C 58.2°F14.6°C 81% Calm Calm 2.0 mph3.2 kmh 29.79 in1008.8 mb 0.00 in0.0 mm 0.00 in0.0 mm 0.00 in0.0 mm
05:20 AM 64.1°F17.8°C 58.4°F14.7°C 82% 1.0 mph SSE1.6 kmh SSE 3.0 mph4.8 kmh 29.79 in1008.8 mb 0.00 in0.0 mm 0.00 in0.0 mm 0.00 in0.0 mm
05:25 AM 64.1°F17.8°C 58.4°F14.7°C 82% Calm Calm 3.0 mph4.8 kmh 29.79 in1008.8 mb 0.00 in0.0 mm 0.00 in0.0 mm 0.00 in0.0 mm
05:30 AM 64.1°F17.8°C 58.4°F14.7°C 82% Calm Calm 3.0 mph4.8 kmh 29.79 in1008.8 mb 0.00 in0.0 mm 0.00 in0.0 mm 0.00 in0.0 mm
05:35 AM 64.2°F17.9°C 58.5°F14.7°C 82% 2.0 mph SSE3.2 kmh SSE 3.0 mph4.8 kmh 29.79 in1008.8 mb 0.00 in0.0 mm 0.00 in0.0 mm 0.00 in0.0 mm
05:40 AM 64.2°F17.9°C 58.5°F14.7°C 82% 1.0 mph S1.6 kmh S 4.0 mph6.4 kmh 29.79 in1008.8 mb 0.00 in0.0 mm 0.00 in0.0 mm 0.00 in0.0 mm
05:45 AM 64.3°F17.9°C 58.6°F14.8°C 82% 1.0 mph SE1.6 kmh SE 4.0 mph6.4 kmh 29.79 in1008.8 mb 0.00 in0.0 mm 0.00 in0.0 mm 0.00 in0.0 mm
05:50 AM 64.5°F18.1°C 58.8°F14.9°C 82% 2.0 mph SE3.2 kmh SE 3.0 mph4.8 kmh 29.79 in1008.8 mb 0.00 in0.0 mm 0.00 in0.0 mm 0.00 in0.0 mm
05:55 AM 64.6°F18.1°C 58.6°F14.8°C 81% 2.0 mph SE3.2 kmh SE 4.0 mph6.4 kmh 29.79 in1008.8 mb 0.00 in0.0 mm 0.00 in0.0 mm 0.00 in0.0 mm
06:00 AM 64.7°F18.2°C 58.7°F14.8°C 81% 2.0 mph S3.2 kmh S 5.0 mph8.0 kmh 29.79 in1008.8 mb 0.00 in0.0 mm 0.00 in0.0 mm 0.00 in0.0 mm
06:05 AM 64.9°F18.3°C 58.9°F14.9°C 81% 2.0 mph SE3.2 kmh SE 5.0 mph8.0 kmh 29.79 in1008.8 mb 0.00 in0.0 mm 0.00 in0.0 mm 0.00 in0.0 mm
06:10 AM 65.1°F18.4°C 59.1°F15.1°C 81% 2.0 mph SSW3.2 kmh SSW 4.0 mph6.4 kmh 29.79 in1008.8 mb 0.00 in0.0 mm 0.00 in0.0 mm 0.00 in0.0 mm
06:20 AM 65.4°F18.6°C 59.4°F15.2°C 81% Calm Calm 4.0 mph6.4 kmh 29.78 in1008.5 mb 0.00 in0.0 mm 0.00 in0.0 mm 0.00 in0.0 mm
06:25 AM 65.7°F18.7°C 59.3°F15.2°C 80% 1.0 mph SSE1.6 kmh SSE 5.0 mph8.0 kmh 29.79 in1008.8 mb 0.00 in0.0 mm 0.00 in0.0 mm 0.00 in0.0 mm
06:30 AM 65.9°F18.8°C 59.5°F15.3°C 80% Calm Calm 3.0 mph4.8 kmh 29.78 in1008.5 mb 0.00 in0.0 mm 0.00 in0.0 mm 0.00 in0.0 mm
06:35 AM 66.5°F19.2°C 59.7°F15.4°C 79% 1.0 mph S1.6 kmh S 1.0 mph1.6 kmh 29.78 in1008.5 mb 0.00 in0.0 mm 0.00 in0.0 mm 0.00 in0.0 mm
06:40 AM 67.3°F19.6°C 60.1°F15.6°C 78% 1.0 mph SSE1.6 kmh SSE 3.0 mph4.8 kmh 29.78 in1008.5 mb 0.00 in0.0 mm 0.00 in0.0 mm 0.00 in0.0 mm
06:45 AM 68.0°F20.0°C 60.1°F15.6°C 76% 2.0 mph S3.2 kmh S 4.0 mph6.4 kmh 29.78 in1008.5 mb 0.00 in0.0 mm 0.00 in0.0 mm 0.00 in0.0 mm
06:50 AM 68.8°F20.4°C 60.5°F15.8°C 75% 2.0 mph S3.2 kmh S 5.0 mph8.0 kmh 29.77 in1008.1 mb 0.00 in0.0 mm 0.00 in0.0 mm 0.00 in0.0 mm
06:55 AM 69.3°F20.7°C 60.6°F15.9°C 74% 5.0 mph SSE8.0 kmh SSE 5.0 mph8.0 kmh 29.77 in1008.1 mb 0.00 in0.0 mm 0.00 in0.0 mm 0.00 in0.0 mm
07:00 AM 70.1°F21.2°C 61.0°F16.1°C 73% 1.0 mph S1.6 kmh S 6.0 mph9.7 kmh 29.77 in1008.1 mb 0.00 in0.0 mm 0.00 in0.0 mm 0.00 in0.0 mm
07:05 AM 70.8°F21.6°C 61.3°F16.3°C 72% 3.0 mph SSE4.8 kmh SSE 5.0 mph8.0 kmh 29.78 in1008.5 mb 0.00 in0.0 mm 0.00 in0.0 mm 0.00 in0.0 mm
07:10 AM 71.5°F21.9°C 61.5°F16.4°C 71% 3.0 mph S4.8 kmh S 6.0 mph9.7 kmh 29.77 in1008.1 mb 0.00 in0.0 mm 0.00 in0.0 mm 0.00 in0.0 mm
07:15 AM 72.1°F22.3°C 61.7°F16.5°C 70% 2.0 mph S3.2 kmh S 6.0 mph9.7 kmh 29.77 in1008.1 mb 0.00 in0.0 mm 0.00 in0.0 mm 0.00 in0.0 mm
07:20 AM 72.8°F22.7°C 62.0°F16.7°C 69% 2.0 mph S3.2 kmh S 5.0 mph8.0 kmh 29.77 in1008.1 mb 0.00 in0.0 mm 0.00 in0.0 mm 0.00 in0.0 mm
07:25 AM 73.6°F23.1°C 62.3°F16.8°C 68% 3.0 mph S4.8 kmh S 6.0 mph9.7 kmh 29.77 in1008.1 mb 0.00 in0.0 mm 0.00 in0.0 mm 0.00 in0.0 mm
07:30 AM 74.2°F23.4°C 62.5°F16.9°C 67% 2.0 mph S3.2 kmh S 6.0 mph9.7 kmh 29.77 in1008.1 mb 0.00 in0.0 mm 0.00 in0.0 mm 0.00 in0.0 mm
07:35 AM 74.7°F23.7°C 62.5°F16.9°C 66% 1.0 mph SSE1.6 kmh SSE 4.0 mph6.4 kmh 29.77 in1008.1 mb 0.00 in0.0 mm 0.00 in0.0 mm 0.00 in0.0 mm
07:40 AM 75.1°F23.9°C 62.5°F16.9°C 65% 3.0 mph SW4.8 kmh SW 2.0 mph3.2 kmh 29.77 in1008.1 mb 0.00 in0.0 mm 0.00 in0.0 mm 0.00 in0.0 mm
07:45 AM 75.5°F24.2°C 62.4°F16.9°C 64% 1.0 mph S1.6 kmh S 4.0 mph6.4 kmh 29.77 in1008.1 mb 0.00 in0.0 mm 0.00 in0.0 mm 0.00 in0.0 mm
07:50 AM 76.1°F24.5°C 62.5°F16.9°C 63% 4.0 mph S6.4 kmh S 6.0 mph9.7 kmh 29.77 in1008.1 mb 0.00 in0.0 mm 0.00 in0.0 mm 0.00 in0.0 mm
07:55 AM 76.4°F24.7°C 62.3°F16.8°C 62% 5.0 mph S8.0 kmh S 7.0 mph11.3 kmh 29.77 in1008.1 mb 0.00 in0.0 mm 0.00 in0.0 mm 0.00 in0.0 mm
08:00 AM 76.9°F24.9°C 62.4°F16.9°C 61% 3.0 mph S4.8 kmh S 9.0 mph14.5 kmh 29.77 in1008.1 mb 0.00 in0.0 mm 0.00 in0.0 mm 0.00 in0.0 mm
08:05 AM 77.6°F25.3°C 63.0°F17.2°C 61% Calm Calm 6.0 mph9.7 kmh 29.77 in1008.1 mb 0.00 in0.0 mm 0.00 in0.0 mm 0.00 in0.0 mm
08:10 AM 78.4°F25.8°C 62.8°F17.1°C 59% Calm Calm 4.0 mph6.4 kmh 29.77 in1008.1 mb 0.00 in0.0 mm 0.00 in0.0 mm 0.00 in0.0 mm
08:15 AM 79.2°F26.2°C 63.1°F17.3°C 58% 2.0 mph SE3.2 kmh SE 3.0 mph4.8 kmh 29.76 in1007.8 mb 0.00 in0.0 mm 0.00 in0.0 mm 0.00 in0.0 mm
08:20 AM 79.6°F26.4°C 63.0°F17.2°C 57% 3.0 mph SSE4.8 kmh SSE 4.0 mph6.4 kmh 29.76 in1007.8 mb 0.00 in0.0 mm 0.00 in0.0 mm 0.00 in0.0 mm
08:25 AM 79.8°F26.6°C 63.1°F17.3°C 57% 3.0 mph SE4.8 kmh SE 5.0 mph8.0 kmh 29.77 in1008.1 mb 0.00 in0.0 mm 0.00 in0.0 mm 0.00 in0.0 mm
08:30 AM 79.7°F26.5°C 62.5°F16.9°C 56% 3.0 mph S4.8 kmh S 6.0 mph9.7 kmh 29.77 in1008.1 mb 0.00 in0.0 mm 0.00 in0.0 mm 0.00 in0.0 mm
08:35 AM 79.7°F26.5°C 62.5°F16.9°C 56% 3.0 mph SSW4.8 kmh SSW 7.0 mph11.3 kmh 29.77 in1008.1 mb 0.00 in0.0 mm 0.00 in0.0 mm 0.00 in0.0 mm
08:40 AM 79.7°F26.5°C 62.5°F16.9°C 56% 3.0 mph SSW4.8 kmh SSW 5.0 mph8.0 kmh 29.77 in1008.1 mb 0.00 in0.0 mm 0.00 in0.0 mm 0.00 in0.0 mm
08:45 AM 79.6°F26.4°C 62.4°F16.9°C 56% 4.0 mph S6.4 kmh S 5.0 mph8.0 kmh 29.77 in1008.1 mb 0.00 in0.0 mm 0.00 in0.0 mm 0.00 in0.0 mm
08:50 AM 79.7°F26.5°C 62.5°F16.9°C 56% 2.0 mph SSW3.2 kmh SSW 6.0 mph9.7 kmh 29.77 in1008.1 mb 0.00 in0.0 mm 0.00 in0.0 mm 0.00 in0.0 mm
08:55 AM 79.7°F26.5°C 63.0°F17.2°C 57% 1.0 mph S1.6 kmh S 9.0 mph14.5 kmh 29.77 in1008.1 mb 0.00 in0.0 mm 0.00 in0.0 mm 0.00 in0.0 mm
09:00 AM 79.9°F26.6°C 62.2°F16.8°C 55% 1.0 mph SSE1.6 kmh SSE 6.0 mph9.7 kmh 29.76 in1007.8 mb 0.00 in0.0 mm 0.00 in0.0 mm 0.00 in0.0 mm
09:05 AM 79.9°F26.6°C 61.7°F16.5°C 54% 2.0 mph SSW3.2 kmh SSW 7.0 mph11.3 kmh 29.76 in1007.8 mb 0.00 in0.0 mm 0.00 in0.0 mm 0.00 in0.0 mm
09:10 AM 79.8°F26.6°C 61.6°F16.4°C 54% Calm Calm 4.0 mph6.4 kmh 29.76 in1007.8 mb 0.00 in0.0 mm 0.00 in0.0 mm 0.00 in0.0 mm
09:15 AM 80.0°F26.7°C 61.8°F16.6°C 54% 2.0 mph S3.2 kmh S 5.0 mph8.0 kmh 29.76 in1007.8 mb 0.00 in0.0 mm 0.00 in0.0 mm 0.00 in0.0 mm
09:20 AM 80.3°F26.8°C 63.1°F17.3°C 56% 4.0 mph W6.4 kmh W 4.0 mph6.4 kmh 29.77 in1008.1 mb 0.00 in0.0 mm 0.00 in0.0 mm 0.00 in0.0 mm
09:25 AM 80.8°F27.1°C 60.9°F16.1°C 51% 3.0 mph SW4.8 kmh SW 4.0 mph6.4 kmh 29.76 in1007.8 mb 0.00 in0.0 mm 0.00 in0.0 mm 0.00 in0.0 mm
09:30 AM 81.3°F27.4°C 61.9°F16.6°C 52% 1.0 mph SSW1.6 kmh SSW 5.0 mph8.0 kmh 29.77 in1008.1 mb 0.00 in0.0 mm 0.00 in0.0 mm 0.00 in0.0 mm
09:35 AM 81.7°F27.6°C 62.8°F17.1°C 53% 3.0 mph WNW4.8 kmh WNW 7.0 mph11.3 kmh 29.77 in1008.1 mb 0.00 in0.0 mm 0.00 in0.0 mm 0.00 in0.0 mm
09:40 AM 82.0°F27.8°C 59.7°F15.4°C 47% 2.0 mph WSW3.2 kmh WSW 5.0 mph8.0 kmh 29.77 in1008.1 mb 0.00 in0.0 mm 0.00 in0.0 mm 0.00 in0.0 mm
09:45 AM 82.8°F28.2°C 61.0°F16.1°C 48% 2.0 mph W3.2 kmh W 5.0 mph8.0 kmh 29.77 in1008.1 mb 0.00 in0.0 mm 0.00 in0.0 mm 0.00 in0.0 mm
09:50 AM 83.4°F28.6°C 61.6°F16.4°C 48% Calm Calm 5.0 mph8.0 kmh 29.76 in1007.8 mb 0.00 in0.0 mm 0.00 in0.0 mm 0.00 in0.0 mm
09:55 AM 83.7°F28.7°C 60.0°F15.6°C 45% 4.0 mph NW6.4 kmh NW 3.0 mph4.8 kmh 29.77 in1008.1 mb 0.00 in0.0 mm 0.00 in0.0 mm 0.00 in0.0 mm
10:00 AM 83.7°F28.7°C 63.0°F17.2°C 50% 3.0 mph W4.8 kmh W 7.0 mph11.3 kmh 29.76 in1007.8 mb 0.00 in0.0 mm 0.00 in0.0 mm 0.00 in0.0 mm
10:05 AM 83.8°F28.8°C 64.8°F18.2°C 53% 5.0 mph W8.0 kmh W 6.0 mph9.7 kmh 29.77 in1008.1 mb 0.00 in0.0 mm 0.00 in0.0 mm 0.00 in0.0 mm
10:10 AM 83.8°F28.8°C 64.8°F18.2°C 53% 2.0 mph NW3.2 kmh NW 5.0 mph8.0 kmh 29.76 in1007.8 mb 0.00 in0.0 mm 0.00 in0.0 mm 0.00 in0.0 mm
10:15 AM 83.9°F28.8°C 61.4°F16.3°C 47% 3.0 mph WSW4.8 kmh WSW 7.0 mph11.3 kmh 29.77 in1008.1 mb 0.00 in0.0 mm 0.00 in0.0 mm 0.00 in0.0 mm
10:20 AM 84.1°F28.9°C 60.4°F15.8°C 45% 1.0 mph SW1.6 kmh SW 4.0 mph6.4 kmh 29.77 in1008.1 mb 0.00 in0.0 mm 0.00 in0.0 mm 0.00 in0.0 mm
10:25 AM 84.7°F29.3°C 61.5°F16.4°C 46% 5.0 mph W8.0 kmh W 6.0 mph9.7 kmh 29.76 in1007.8 mb 0.00 in0.0 mm 0.00 in0.0 mm 0.00 in0.0 mm
10:30 AM 84.9°F29.4°C 61.1°F16.2°C 45% 4.0 mph NW6.4 kmh NW 10.0 mph16.1 kmh 29.77 in1008.1 mb 0.00 in0.0 mm 0.00 in0.0 mm 0.00 in0.0 mm
10:35 AM 85.2°F29.6°C 61.4°F16.3°C 45% Calm Calm 4.0 mph6.4 kmh 29.76 in1007.8 mb 0.00 in0.0 mm 0.00 in0.0 mm 0.00 in0.0 mm
10:40 AM 85.6°F29.8°C 61.1°F16.2°C 44% 1.0 mph W1.6 kmh W 7.0 mph11.3 kmh 29.76 in1007.8 mb 0.00 in0.0 mm 0.00 in0.0 mm 0.00 in0.0 mm
10:45 AM 86.0°F30.0°C 62.1°F16.7°C 45% 7.0 mph WNW11.3 kmh WNW 11.0 mph17.7 kmh 29.76 in1007.8 mb 0.00 in0.0 mm 0.00 in0.0 mm 0.00 in0.0 mm
10:50 AM 85.6°F29.8°C 63.0°F17.2°C 47% 4.0 mph SW6.4 kmh SW 7.0 mph11.3 kmh 29.76 in1007.8 mb 0.00 in0.0 mm 0.00 in0.0 mm 0.00 in0.0 mm
10:55 AM 85.0°F29.4°C 63.0°F17.2°C 48% 1.0 mph W1.6 kmh W 5.0 mph8.0 kmh 29.76 in1007.8 mb 0.00 in0.0 mm 0.00 in0.0 mm 0.00 in0.0 mm
11:00 AM 84.9°F29.4°C 62.3°F16.8°C 47% 1.0 mph NNW1.6 kmh NNW 10.0 mph16.1 kmh 29.76 in1007.8 mb 0.00 in0.0 mm 0.00 in0.0 mm 0.00 in0.0 mm
11:05 AM 85.2°F29.6°C 62.6°F17.0°C 47% 2.0 mph NW3.2 kmh NW 5.0 mph8.0 kmh 29.75 in1007.5 mb 0.00 in0.0 mm 0.00 in0.0 mm 0.00 in0.0 mm
11:10 AM 85.7°F29.8°C 59.9°F15.5°C 42% 4.0 mph WNW6.4 kmh WNW 7.0 mph11.3 kmh 29.75 in1007.5 mb 0.00 in0.0 mm 0.00 in0.0 mm 0.00 in0.0 mm
11:15 AM 86.0°F30.0°C 60.1°F15.6°C 42% 5.0 mph W8.0 kmh W 6.0 mph9.7 kmh 29.75 in1007.5 mb 0.00 in0.0 mm 0.00 in0.0 mm 0.00 in0.0 mm
11:20 AM 86.5°F30.3°C 59.9°F15.5°C 41% 1.0 mph WNW1.6 kmh WNW 6.0 mph9.7 kmh 29.75 in1007.5 mb 0.00 in0.0 mm 0.00 in0.0 mm 0.00 in0.0 mm
11:25 AM 86.8°F30.4°C 60.2°F15.7°C 41% 2.0 mph NW3.2 kmh NW 7.0 mph11.3 kmh 29.75 in1007.5 mb 0.00 in0.0 mm 0.00 in0.0 mm 0.00 in0.0 mm
11:30 AM 87.0°F30.6°C 60.4°F15.8°C 41% 1.0 mph NW1.6 kmh NW 10.0 mph16.1 kmh 29.75 in1007.5 mb 0.00 in0.0 mm 0.00 in0.0 mm 0.00 in0.0 mm
11:35 AM 86.9°F30.5°C 60.3°F15.7°C 41% 5.0 mph WNW8.0 kmh WNW 12.0 mph19.3 kmh 29.75 in1007.5 mb 0.00 in0.0 mm 0.00 in0.0 mm 0.00 in0.0 mm
11:40 AM 86.8°F30.4°C 60.2°F15.7°C 41% 5.0 mph WSW8.0 kmh WSW 11.0 mph17.7 kmh 29.75 in1007.5 mb 0.00 in0.0 mm 0.00 in0.0 mm 0.00 in0.0 mm
11:45 AM 86.2°F30.1°C 61.0°F16.1°C 43% 5.0 mph W8.0 kmh W 9.0 mph14.5 kmh 29.75 in1007.5 mb 0.00 in0.0 mm 0.00 in0.0 mm 0.00 in0.0 mm
11:50 AM 86.4°F30.2°C 60.5°F15.8°C 42% 4.0 mph WSW6.4 kmh WSW 12.0 mph19.3 kmh 29.75 in1007.5 mb 0.00 in0.0 mm 0.00 in0.0 mm 0.00 in0.0 mm
11:55 AM 86.7°F30.4°C 60.8°F16.0°C 42% 8.0 mph WNW12.9 kmh WNW 13.0 mph20.9 kmh 29.74 in1007.1 mb 0.00 in0.0 mm 0.00 in0.0 mm 0.00 in0.0 mm
12:00 PM 86.6°F30.3°C 60.0°F15.6°C 41% 10.0 mph W16.1 kmh W 13.0 mph20.9 kmh 29.74 in1007.1 mb 0.00 in0.0 mm 0.00 in0.0 mm 0.00 in0.0 mm
12:05 PM 86.6°F30.3°C 59.3°F15.2°C 40% 10.0 mph WNW16.1 kmh WNW 13.0 mph20.9 kmh 29.75 in1007.5 mb 0.00 in0.0 mm 0.00 in0.0 mm 0.00 in0.0 mm
12:10 PM 86.7°F30.4°C 60.8°F16.0°C 42% 5.0 mph W8.0 kmh W 10.0 mph16.1 kmh 29.74 in1007.1 mb 0.00 in0.0 mm 0.00 in0.0 mm 0.00 in0.0 mm
12:15 PM 87.1°F30.6°C 61.8°F16.6°C 43% 4.0 mph NW6.4 kmh NW 7.0 mph11.3 kmh 29.74 in1007.1 mb 0.00 in0.0 mm 0.00 in0.0 mm 0.00 in0.0 mm
12:20 PM 87.3°F30.7°C 62.6°F17.0°C 44% 5.0 mph WNW8.0 kmh WNW 12.0 mph19.3 kmh 29.74 in1007.1 mb 0.00 in0.0 mm 0.00 in0.0 mm 0.00 in0.0 mm
12:25 PM 87.7°F30.9°C 62.3°F16.8°C 43% 5.0 mph WNW8.0 kmh WNW 9.0 mph14.5 kmh 29.74 in1007.1 mb 0.00 in0.0 mm 0.00 in0.0 mm 0.00 in0.0 mm
12:30 PM 87.9°F31.1°C 62.5°F16.9°C 43% 5.0 mph WNW8.0 kmh WNW 11.0 mph17.7 kmh 29.73 in1006.8 mb 0.00 in0.0 mm 0.00 in0.0 mm 0.00 in0.0 mm
12:35 PM 87.2°F30.7°C 60.5°F15.8°C 41% 10.0 mph WNW16.1 kmh WNW 16.0 mph25.7 kmh 29.74 in1007.1 mb 0.00 in0.0 mm 0.00 in0.0 mm 0.00 in0.0 mm
12:40 PM 87.1°F30.6°C 61.1°F16.2°C 42% 9.0 mph W14.5 kmh W 14.0 mph22.5 kmh 29.74 in1007.1 mb 0.00 in0.0 mm 0.00 in0.0 mm 0.00 in0.0 mm
12:45 PM 87.2°F30.7°C 61.2°F16.2°C 42% 9.0 mph NW14.5 kmh NW 14.0 mph22.5 kmh 29.74 in1007.1 mb 0.00 in0.0 mm 0.00 in0.0 mm 0.00 in0.0 mm
12:50 PM 87.3°F30.7°C 60.6°F15.9°C 41% 4.0 mph NW6.4 kmh NW 14.0 mph22.5 kmh 29.74 in1007.1 mb 0.00 in0.0 mm 0.00 in0.0 mm 0.00 in0.0 mm
12:55 PM 87.3°F30.7°C 60.6°F15.9°C 41% 6.0 mph W9.7 kmh W 15.0 mph24.1 kmh 29.74 in1007.1 mb 0.00 in0.0 mm 0.00 in0.0 mm 0.00 in0.0 mm
01:00 PM 87.4°F30.8°C 60.0°F15.6°C 40% 9.0 mph NW14.5 kmh NW 12.0 mph19.3 kmh 29.73 in1006.8 mb 0.00 in0.0 mm 0.00 in0.0 mm 0.00 in0.0 mm
01:05 PM 87.6°F30.9°C 60.2°F15.7°C 40% 10.0 mph WNW16.1 kmh WNW 14.0 mph22.5 kmh 29.73 in1006.8 mb 0.00 in0.0 mm 0.00 in0.0 mm 0.00 in0.0 mm
01:10 PM 87.4°F30.8°C 59.3°F15.2°C 39% 4.0 mph NW6.4 kmh NW 14.0 mph22.5 kmh 29.73 in1006.8 mb 0.00 in0.0 mm 0.00 in0.0 mm 0.00 in0.0 mm
01:15 PM 87.5°F30.8°C 61.5°F16.4°C 42% 2.0 mph NNW3.2 kmh NNW 9.0 mph14.5 kmh 29.73 in1006.8 mb 0.00 in0.0 mm 0.00 in0.0 mm 0.00 in0.0 mm
01:20 PM 87.8°F31.0°C 61.1°F16.2°C 41% 1.0 mph NW1.6 kmh NW 12.0 mph19.3 kmh 29.73 in1006.8 mb 0.00 in0.0 mm 0.00 in0.0 mm 0.00 in0.0 mm
01:25 PM 88.1°F31.2°C 61.3°F16.3°C 41% 10.0 mph WSW16.1 kmh WSW 12.0 mph19.3 kmh 29.73 in1006.8 mb 0.00 in0.0 mm 0.00 in0.0 mm 0.00 in0.0 mm
01:30 PM 88.0°F31.1°C 59.1°F15.1°C 38% 4.0 mph WNW6.4 kmh WNW 12.0 mph19.3 kmh 29.73 in1006.8 mb 0.00 in0.0 mm 0.00 in0.0 mm 0.00 in0.0 mm
01:35 PM 88.1°F31.2°C 57.7°F14.3°C 36% 5.0 mph WSW8.0 kmh WSW 9.0 mph14.5 kmh 29.73 in1006.8 mb 0.00 in0.0 mm 0.00 in0.0 mm 0.00 in0.0 mm
01:40 PM 88.4°F31.3°C 60.9°F16.1°C 40% 1.0 mph W1.6 kmh W 7.0 mph11.3 kmh 29.72 in1006.4 mb 0.00 in0.0 mm 0.00 in0.0 mm 0.00 in0.0 mm
01:45 PM 88.9°F31.6°C 59.2°F15.1°C 37% 4.0 mph W6.4 kmh W 12.0 mph19.3 kmh 29.72 in1006.4 mb 0.00 in0.0 mm 0.00 in0.0 mm 0.00 in0.0 mm
01:50 PM 89.0°F31.7°C 58.5°F14.7°C 36% 7.0 mph WSW11.3 kmh WSW 11.0 mph17.7 kmh 29.72 in1006.4 mb 0.00 in0.0 mm 0.00 in0.0 mm 0.00 in0.0 mm
01:55 PM 89.2°F31.8°C 59.4°F15.2°C 37% 4.0 mph W6.4 kmh W 11.0 mph17.7 kmh 29.71 in1006.1 mb 0.00 in0.0 mm 0.00 in0.0 mm 0.00 in0.0 mm
02:00 PM 89.0°F31.7°C 59.3°F15.2°C 37% 3.0 mph WSW4.8 kmh WSW 11.0 mph17.7 kmh 29.71 in1006.1 mb 0.00 in0.0 mm 0.00 in0.0 mm 0.00 in0.0 mm
02:05 PM 88.9°F31.6°C 61.4°F16.3°C 40% 4.0 mph N6.4 kmh N 10.0 mph16.1 kmh 29.71 in1006.1 mb 0.00 in0.0 mm 0.00 in0.0 mm 0.00 in0.0 mm
02:10 PM 88.3°F31.3°C 62.2°F16.8°C 42% 7.0 mph WNW11.3 kmh WNW 7.0 mph11.3 kmh 29.71 in1006.1 mb 0.00 in0.0 mm 0.00 in0.0 mm 0.00 in0.0 mm
02:15 PM 88.1°F31.2°C 61.3°F16.3°C 41% 2.0 mph NNW3.2 kmh NNW 11.0 mph17.7 kmh 29.71 in1006.1 mb 0.00 in0.0 mm 0.00 in0.0 mm 0.00 in0.0 mm
02:20 PM 88.4°F31.3°C 59.5°F15.3°C 38% 1.0 mph NNW1.6 kmh NNW 5.0 mph8.0 kmh 29.71 in1006.1 mb 0.00 in0.0 mm 0.00 in0.0 mm 0.00 in0.0 mm
02:25 PM 88.7°F31.5°C 60.5°F15.8°C 39% 1.0 mph NW1.6 kmh NW 5.0 mph8.0 kmh 29.70 in1005.8 mb 0.00 in0.0 mm 0.00 in0.0 mm 0.00 in0.0 mm
02:30 PM 87.9°F31.1°C 60.5°F15.8°C 40% 1.0 mph WNW1.6 kmh WNW 12.0 mph19.3 kmh 29.70 in1005.8 mb 0.00 in0.0 mm 0.00 in0.0 mm 0.00 in0.0 mm
02:35 PM 87.2°F30.7°C 60.5°F15.8°C 41% 6.0 mph W9.7 kmh W 7.0 mph11.3 kmh 29.70 in1005.8 mb 0.00 in0.0 mm 0.00 in0.0 mm 0.00 in0.0 mm
02:40 PM 86.7°F30.4°C 60.8°F16.0°C 42% 3.0 mph NW4.8 kmh NW 10.0 mph16.1 kmh 29.70 in1005.8 mb 0.00 in0.0 mm 0.00 in0.0 mm 0.00 in0.0 mm
02:45 PM 86.2°F30.1°C 59.6°F15.3°C 41% 4.0 mph N6.4 kmh N 12.0 mph19.3 kmh 29.70 in1005.8 mb 0.00 in0.0 mm 0.00 in0.0 mm 0.00 in0.0 mm
02:50 PM 86.1°F30.1°C 60.2°F15.7°C 42% 2.0 mph N3.2 kmh N 5.0 mph8.0 kmh 29.69 in1005.4 mb 0.00 in0.0 mm 0.00 in0.0 mm 0.00 in0.0 mm
02:55 PM 86.1°F30.1°C 60.2°F15.7°C 42% 3.0 mph NW4.8 kmh NW 10.0 mph16.1 kmh 29.69 in1005.4 mb 0.00 in0.0 mm 0.00 in0.0 mm 0.00 in0.0 mm
03:00 PM 85.9°F29.9°C 60.7°F15.9°C 43% 3.0 mph W4.8 kmh W 7.0 mph11.3 kmh 29.69 in1005.4 mb 0.00 in0.0 mm 0.00 in0.0 mm 0.00 in0.0 mm
03:05 PM 85.0°F29.4°C 59.3°F15.2°C 42% 10.0 mph N16.1 kmh N 14.0 mph22.5 kmh 29.69 in1005.4 mb 0.00 in0.0 mm 0.00 in0.0 mm 0.00 in0.0 mm
03:10 PM 83.8°F28.8°C 60.1°F15.6°C 45% 1.0 mph NNW1.6 kmh NNW 13.0 mph20.9 kmh 29.70 in1005.8 mb 0.00 in0.0 mm 0.00 in0.0 mm 0.00 in0.0 mm
03:15 PM 83.2°F28.4°C 60.2°F15.7°C 46% 5.0 mph NW8.0 kmh NW 14.0 mph22.5 kmh 29.70 in1005.8 mb 0.00 in0.0 mm 0.00 in0.0 mm 0.00 in0.0 mm
03:20 PM 82.7°F28.2°C 59.7°F15.4°C 46% 1.0 mph NW1.6 kmh NW 15.0 mph24.1 kmh 29.70 in1005.8 mb 0.00 in0.0 mm 0.00 in0.0 mm 0.00 in0.0 mm
03:25 PM 82.4°F28.0°C 60.1°F15.6°C 47% 3.0 mph NW4.8 kmh NW 5.0 mph8.0 kmh 29.70 in1005.8 mb 0.00 in0.0 mm 0.00 in0.0 mm 0.00 in0.0 mm
03:30 PM 81.9°F27.7°C 58.4°F14.7°C 45% 6.0 mph WNW9.7 kmh WNW 17.0 mph27.4 kmh 29.71 in1006.1 mb 0.00 in0.0 mm 0.00 in0.0 mm 0.00 in0.0 mm
03:35 PM 81.1°F27.3°C 58.9°F14.9°C 47% 12.0 mph NW19.3 kmh NW 13.0 mph20.9 kmh 29.71 in1006.1 mb 0.00 in0.0 mm 0.00 in0.0 mm 0.00 in0.0 mm
03:40 PM 80.2°F26.8°C 58.1°F14.5°C 47% 4.0 mph W6.4 kmh W 15.0 mph24.1 kmh 29.71 in1006.1 mb 0.00 in0.0 mm 0.00 in0.0 mm 0.00 in0.0 mm
03:45 PM 79.6°F26.4°C 57.5°F14.2°C 47% 11.0 mph WNW17.7 kmh WNW 17.0 mph27.4 kmh 29.72 in1006.4 mb 0.00 in0.0 mm 0.00 in0.0 mm 0.00 in0.0 mm
03:50 PM 79.1°F26.2°C 58.2°F14.6°C 49% 5.0 mph WNW8.0 kmh WNW 18.0 mph29.0 kmh 29.75 in1007.5 mb 0.00 in0.0 mm 0.00 in0.0 mm 0.00 in0.0 mm
03:55 PM 76.0°F24.4°C 61.0°F16.1°C 60% 22.0 mph WSW35.4 kmh WSW 33.0 mph53.1 kmh 29.76 in1007.8 mb 0.00 in0.0 mm 0.00 in0.0 mm 0.00 in0.0 mm
04:00 PM 71.7°F22.1°C 62.9°F17.2°C 74% 15.0 mph W24.1 kmh W 28.0 mph45.1 kmh 29.78 in1008.5 mb 0.00 in0.0 mm 0.00 in0.0 mm 0.00 in0.0 mm
04:05 PM 67.9°F19.9°C 62.1°F16.7°C 82% 12.0 mph SW19.3 kmh SW 29.0 mph46.7 kmh 29.79 in1008.8 mb 0.01 in0.3 mm 0.12 in3.0 mm 0.01 in0.3 mm
04:10 PM 66.2°F19.0°C 62.2°F16.8°C 87% 16.0 mph SW25.7 kmh SW 24.0 mph38.6 kmh 29.80 in1009.1 mb 0.01 in0.3 mm 0.00 in0.0 mm 0.01 in0.3 mm
04:15 PM 65.8°F18.8°C 62.4°F16.9°C 89% 3.0 mph WSW4.8 kmh WSW 17.0 mph27.4 kmh 29.82 in1009.8 mb 0.01 in0.3 mm 0.00 in0.0 mm 0.01 in0.3 mm
04:20 PM 65.6°F18.7°C 62.5°F16.9°C 90% 4.0 mph WSW6.4 kmh WSW 12.0 mph19.3 kmh 29.83 in1010.2 mb 0.02 in0.5 mm 0.12 in3.0 mm 0.02 in0.5 mm
04:25 PM 65.4°F18.6°C 62.6°F17.0°C 91% 4.0 mph W6.4 kmh W 20.0 mph32.2 kmh 29.83 in1010.2 mb 0.02 in0.5 mm 0.00 in0.0 mm 0.02 in0.5 mm
04:30 PM 65.2°F18.4°C 62.5°F16.9°C 91% 13.0 mph W20.9 kmh W 18.0 mph29.0 kmh 29.83 in1010.2 mb 0.02 in0.5 mm 0.00 in0.0 mm 0.02 in0.5 mm
04:35 PM 65.1°F18.4°C 62.4°F16.9°C 91% 8.0 mph WSW12.9 kmh WSW 19.0 mph30.6 kmh 29.83 in1010.2 mb 0.02 in0.5 mm 0.00 in0.0 mm 0.02 in0.5 mm
04:40 PM 65.0°F18.3°C 62.6°F17.0°C 92% 6.0 mph WNW9.7 kmh WNW 15.0 mph24.1 kmh 29.84 in1010.5 mb 0.02 in0.5 mm 0.00 in0.0 mm 0.02 in0.5 mm
04:45 PM 65.1°F18.4°C 62.7°F17.1°C 92% 11.0 mph SW17.7 kmh SW 13.0 mph20.9 kmh 29.84 in1010.5 mb 0.02 in0.5 mm 0.00 in0.0 mm 0.02 in0.5 mm
04:50 PM 65.2°F18.4°C 63.1°F17.3°C 93% 5.0 mph SW8.0 kmh SW 8.0 mph12.9 kmh 29.85 in1010.8 mb 0.02 in0.5 mm 0.00 in0.0 mm 0.02 in0.5 mm
04:55 PM 65.1°F18.4°C 63.0°F17.2°C 93% 5.0 mph SW8.0 kmh SW 11.0 mph17.7 kmh 29.85 in1010.8 mb 0.03 in0.8 mm 0.12 in3.0 mm 0.03 in0.8 mm
05:00 PM 65.1°F18.4°C 63.0°F17.2°C 93% 5.0 mph S8.0 kmh S 8.0 mph12.9 kmh 29.85 in1010.8 mb 0.03 in0.8 mm 0.00 in0.0 mm 0.03 in0.8 mm
05:05 PM 65.1°F18.4°C 63.0°F17.2°C 93% 3.0 mph SW4.8 kmh SW 11.0 mph17.7 kmh 29.84 in1010.5 mb 0.02 in0.5 mm 0.00 in0.0 mm 0.03 in0.8 mm
05:10 PM 65.1°F18.4°C 63.0°F17.2°C 93% 3.0 mph WSW4.8 kmh WSW 7.0 mph11.3 kmh 29.84 in1010.5 mb 0.02 in0.5 mm 0.00 in0.0 mm 0.03 in0.8 mm
05:15 PM 65.1°F18.4°C 63.0°F17.2°C 93% 3.0 mph W4.8 kmh W 5.0 mph8.0 kmh 29.83 in1010.2 mb 0.02 in0.5 mm 0.00 in0.0 mm 0.03 in0.8 mm
05:20 PM 65.2°F18.4°C 63.1°F17.3°C 93% 3.0 mph W4.8 kmh W 5.0 mph8.0 kmh 29.83 in1010.2 mb 0.02 in0.5 mm 0.00 in0.0 mm 0.03 in0.8 mm
05:25 PM 65.2°F18.4°C 63.1°F17.3°C 93% 5.0 mph W8.0 kmh W 7.0 mph11.3 kmh 29.83 in1010.2 mb 0.02 in0.5 mm 0.00 in0.0 mm 0.03 in0.8 mm
05:30 PM 65.2°F18.4°C 63.4°F17.4°C 94% 1.0 mph W1.6 kmh W 6.0 mph9.7 kmh 29.82 in1009.8 mb 0.02 in0.5 mm 0.00 in0.0 mm 0.03 in0.8 mm
05:35 PM 65.2°F18.4°C 63.4°F17.4°C 94% 2.0 mph WNW3.2 kmh WNW 6.0 mph9.7 kmh 29.82 in1009.8 mb 0.02 in0.5 mm 0.00 in0.0 mm 0.04 in1.0 mm
05:40 PM 65.3°F18.5°C 63.5°F17.5°C 94% 4.0 mph W6.4 kmh W 5.0 mph8.0 kmh 29.82 in1009.8 mb 0.02 in0.5 mm 0.00 in0.0 mm 0.04 in1.0 mm
05:45 PM 65.2°F18.4°C 63.4°F17.4°C 94% 1.0 mph WSW1.6 kmh WSW 3.0 mph4.8 kmh 29.82 in1009.8 mb 0.02 in0.5 mm 0.00 in0.0 mm 0.05 in1.3 mm
05:50 PM 65.2°F18.4°C 63.4°F17.4°C 94% 1.0 mph WSW1.6 kmh WSW 3.0 mph4.8 kmh 29.82 in1009.8 mb 0.02 in0.5 mm 0.00 in0.0 mm 0.05 in1.3 mm
05:55 PM 65.2°F18.4°C 63.4°F17.4°C 94% 3.0 mph SW4.8 kmh SW 4.0 mph6.4 kmh 29.82 in1009.8 mb 0.02 in0.5 mm 0.00 in0.0 mm 0.06 in1.5 mm
06:00 PM 65.2°F18.4°C 63.4°F17.4°C 94% 2.0 mph WSW3.2 kmh WSW 5.0 mph8.0 kmh 29.82 in1009.8 mb 0.03 in0.8 mm 0.01 in0.3 mm 0.06 in1.5 mm
06:05 PM 65.1°F18.4°C 63.3°F17.4°C 94% 3.0 mph WSW4.8 kmh WSW 5.0 mph8.0 kmh 29.81 in1009.5 mb 0.03 in0.8 mm 0.00 in0.0 mm 0.06 in1.5 mm
06:10 PM 65.1°F18.4°C 63.0°F17.2°C 93% 2.0 mph W3.2 kmh W 4.0 mph6.4 kmh 29.80 in1009.1 mb 0.04 in1.0 mm 0.12 in3.0 mm 0.07 in1.8 mm
06:15 PM 65.2°F18.4°C 63.4°F17.4°C 94% 1.0 mph W1.6 kmh W 3.0 mph4.8 kmh 29.80 in1009.1 mb 0.04 in1.0 mm 0.00 in0.0 mm 0.07 in1.8 mm
06:20 PM 65.2°F18.4°C 63.1°F17.3°C 93% 1.0 mph W1.6 kmh W 2.0 mph3.2 kmh 29.79 in1008.8 mb 0.05 in1.3 mm 0.12 in3.0 mm 0.08 in2.0 mm
06:25 PM 65.1°F18.4°C 63.0°F17.2°C 93% 4.0 mph ENE6.4 kmh ENE 4.0 mph6.4 kmh 29.79 in1008.8 mb 0.05 in1.3 mm 0.00 in0.0 mm 0.08 in2.0 mm
06:30 PM 65.2°F18.4°C 63.4°F17.4°C 94% Calm Calm 4.0 mph6.4 kmh 29.80 in1009.1 mb 0.06 in1.5 mm 0.12 in3.0 mm 0.09 in2.3 mm
06:35 PM 65.3°F18.5°C 63.5°F17.5°C 94% 3.0 mph SW4.8 kmh SW 4.0 mph6.4 kmh 29.80 in1009.1 mb 0.05 in1.3 mm 0.00 in0.0 mm 0.09 in2.3 mm
06:40 PM 65.3°F18.5°C 63.5°F17.5°C 94% 2.0 mph WSW3.2 kmh WSW 4.0 mph6.4 kmh 29.81 in1009.5 mb 0.05 in1.3 mm 0.00 in0.0 mm 0.09 in2.3 mm
06:45 PM 65.4°F18.6°C 63.6°F17.6°C 94% 2.0 mph SW3.2 kmh SW 3.0 mph4.8 kmh 29.81 in1009.5 mb 0.05 in1.3 mm 0.00 in0.0 mm 0.09 in2.3 mm
06:50 PM 65.3°F18.5°C 63.5°F17.5°C 94% 3.0 mph SW4.8 kmh SW 3.0 mph4.8 kmh 29.80 in1009.1 mb 0.05 in1.3 mm 0.00 in0.0 mm 0.09 in2.3 mm
06:55 PM 65.2°F18.4°C 63.4°F17.4°C 94% Calm Calm 3.0 mph4.8 kmh 29.81 in1009.5 mb 0.05 in1.3 mm 0.00 in0.0 mm 0.10 in2.5 mm
07:00 PM 65.3°F18.5°C 63.5°F17.5°C 94% 1.0 mph ESE1.6 kmh ESE 2.0 mph3.2 kmh 29.80 in1009.1 mb 0.04 in1.0 mm 0.00 in0.0 mm 0.10 in2.5 mm
07:05 PM 65.4°F18.6°C 63.6°F17.6°C 94% Calm Calm 2.0 mph3.2 kmh 29.79 in1008.8 mb 0.05 in1.3 mm 0.12 in3.0 mm 0.11 in2.8 mm
07:10 PM 65.5°F18.6°C 63.7°F17.6°C 94% Calm Calm -- 29.79 in1008.8 mb 0.04 in1.0 mm 0.00 in0.0 mm 0.11 in2.8 mm
07:15 PM 65.4°F18.6°C 63.6°F17.6°C 94% 1.0 mph SE1.6 kmh SE 3.0 mph4.8 kmh 29.80 in1009.1 mb 0.04 in1.0 mm 0.00 in0.0 mm 0.11 in2.8 mm
07:20 PM 65.4°F18.6°C 63.6°F17.6°C 94% 2.0 mph S3.2 kmh S 3.0 mph4.8 kmh 29.80 in1009.1 mb 0.04 in1.0 mm 0.00 in0.0 mm 0.12 in3.0 mm
07:25 PM 65.5°F18.6°C 63.7°F17.6°C 94% 1.0 mph S1.6 kmh S 5.0 mph8.0 kmh 29.80 in1009.1 mb 0.04 in1.0 mm 0.00 in0.0 mm 0.12 in3.0 mm
07:30 PM 65.5°F18.6°C 63.7°F17.6°C 94% 2.0 mph S3.2 kmh S 5.0 mph8.0 kmh 29.80 in1009.1 mb 0.03 in0.8 mm 0.00 in0.0 mm 0.12 in3.0 mm
07:35 PM 65.7°F18.7°C 63.9°F17.7°C 94% 1.0 mph ESE1.6 kmh ESE 5.0 mph8.0 kmh 29.80 in1009.1 mb 0.03 in0.8 mm 0.00 in0.0 mm 0.12 in3.0 mm
07:40 PM 65.7°F18.7°C 63.9°F17.7°C 94% 1.0 mph S1.6 kmh S 5.0 mph8.0 kmh 29.80 in1009.1 mb 0.04 in1.0 mm 0.12 in3.0 mm 0.13 in3.3 mm
07:45 PM 65.7°F18.7°C 63.9°F17.7°C 94% 3.0 mph SE4.8 kmh SE 4.0 mph6.4 kmh 29.80 in1009.1 mb 0.03 in0.8 mm 0.00 in0.0 mm 0.13 in3.3 mm
07:50 PM 65.8°F18.8°C 64.0°F17.8°C 94% 3.0 mph SE4.8 kmh SE 5.0 mph8.0 kmh 29.80 in1009.1 mb 0.03 in0.8 mm 0.00 in0.0 mm 0.13 in3.3 mm
07:55 PM 65.6°F18.7°C 63.8°F17.7°C 94% 4.0 mph S6.4 kmh S 6.0 mph9.7 kmh 29.80 in1009.1 mb 0.02 in0.5 mm 0.00 in0.0 mm 0.13 in3.3 mm
08:00 PM 65.4°F18.6°C 63.6°F17.6°C 94% 1.0 mph S1.6 kmh S 6.0 mph9.7 kmh 29.81 in1009.5 mb 0.03 in0.8 mm 0.01 in0.3 mm 0.13 in3.3 mm
08:05 PM 65.3°F18.5°C 63.5°F17.5°C 94% 4.0 mph SE6.4 kmh SE 6.0 mph9.7 kmh 29.81 in1009.5 mb 0.02 in0.5 mm 0.00 in0.0 mm 0.13 in3.3 mm
08:10 PM 65.3°F18.5°C 63.5°F17.5°C 94% 2.0 mph SE3.2 kmh SE 5.0 mph8.0 kmh 29.81 in1009.5 mb 0.02 in0.5 mm 0.00 in0.0 mm 0.13 in3.3 mm
08:15 PM 65.2°F18.4°C 63.1°F17.3°C 93% 1.0 mph ESE1.6 kmh ESE 6.0 mph9.7 kmh 29.81 in1009.5 mb 0.02 in0.5 mm 0.00 in0.0 mm 0.13 in3.3 mm
08:20 PM 65.1°F18.4°C 63.0°F17.2°C 93% 3.0 mph SSE4.8 kmh SSE 5.0 mph8.0 kmh 29.81 in1009.5 mb 0.02 in0.5 mm 0.00 in0.0 mm 0.13 in3.3 mm
08:25 PM 65.0°F18.3°C 62.9°F17.2°C 93% 2.0 mph SSE3.2 kmh SSE 5.0 mph8.0 kmh 29.81 in1009.5 mb 0.02 in0.5 mm 0.00 in0.0 mm 0.14 in3.6 mm
08:30 PM 65.0°F18.3°C 63.2°F17.3°C 94% 2.0 mph SSE3.2 kmh SSE 2.0 mph3.2 kmh 29.81 in1009.5 mb 0.02 in0.5 mm 0.00 in0.0 mm 0.14 in3.6 mm
08:35 PM 65.1°F18.4°C 63.3°F17.4°C 94% 2.0 mph S3.2 kmh S 5.0 mph8.0 kmh 29.81 in1009.5 mb 0.02 in0.5 mm 0.00 in0.0 mm 0.14 in3.6 mm
08:40 PM 65.1°F18.4°C 63.3°F17.4°C 94% 1.0 mph SSE1.6 kmh SSE 4.0 mph6.4 kmh 29.81 in1009.5 mb 0.02 in0.5 mm 0.00 in0.0 mm 0.14 in3.6 mm
08:45 PM 65.0°F18.3°C 62.9°F17.2°C 93% 2.0 mph SSE3.2 kmh SSE 4.0 mph6.4 kmh 29.81 in1009.5 mb 0.02 in0.5 mm 0.00 in0.0 mm 0.14 in3.6 mm
08:50 PM 65.0°F18.3°C 62.9°F17.2°C 93% 1.0 mph S1.6 kmh S 3.0 mph4.8 kmh 29.81 in1009.5 mb 0.02 in0.5 mm 0.00 in0.0 mm 0.15 in3.8 mm
08:55 PM 64.9°F18.3°C 62.8°F17.1°C 93% 3.0 mph S4.8 kmh S 4.0 mph6.4 kmh 29.81 in1009.5 mb 0.02 in0.5 mm 0.00 in0.0 mm 0.15 in3.8 mm
09:00 PM 64.8°F18.2°C 62.7°F17.1°C 93% 2.0 mph SSW3.2 kmh SSW 6.0 mph9.7 kmh 29.81 in1009.5 mb 0.02 in0.5 mm 0.00 in0.0 mm 0.15 in3.8 mm
09:05 PM 64.7°F18.2°C 62.6°F17.0°C 93% 3.0 mph S4.8 kmh S 4.0 mph6.4 kmh 29.80 in1009.1 mb 0.02 in0.5 mm 0.00 in0.0 mm 0.15 in3.8 mm
09:10 PM 64.7°F18.2°C 62.6°F17.0°C 93% 2.0 mph S3.2 kmh S 4.0 mph6.4 kmh 29.80 in1009.1 mb 0.02 in0.5 mm 0.00 in0.0 mm 0.15 in3.8 mm
09:15 PM 64.6°F18.1°C 62.5°F16.9°C 93% 4.0 mph S6.4 kmh S 5.0 mph8.0 kmh 29.81 in1009.5 mb 0.02 in0.5 mm 0.00 in0.0 mm 0.16 in4.1 mm
09:20 PM 64.6°F18.1°C 62.5°F16.9°C 93% 7.0 mph S11.3 kmh S 7.0 mph11.3 kmh 29.81 in1009.5 mb 0.02 in0.5 mm 0.00 in0.0 mm 0.16 in4.1 mm
09:25 PM 64.6°F18.1°C 62.5°F16.9°C 93% 2.0 mph S3.2 kmh S 5.0 mph8.0 kmh 29.80 in1009.1 mb 0.02 in0.5 mm 0.00 in0.0 mm 0.16 in4.1 mm
09:30 PM 64.6°F18.1°C 62.5°F16.9°C 93% 3.0 mph S4.8 kmh S 6.0 mph9.7 kmh 29.80 in1009.1 mb 0.02 in0.5 mm 0.00 in0.0 mm 0.16 in4.1 mm
09:35 PM 64.6°F18.1°C 62.5°F16.9°C 93% 3.0 mph SSW4.8 kmh SSW 5.0 mph8.0 kmh 29.81 in1009.5 mb 0.02 in0.5 mm 0.00 in0.0 mm 0.17 in4.3 mm
09:40 PM 64.6°F18.1°C 62.5°F16.9°C 93% 3.0 mph SSE4.8 kmh SSE 6.0 mph9.7 kmh 29.81 in1009.5 mb 0.02 in0.5 mm 0.00 in0.0 mm 0.17 in4.3 mm
09:45 PM 64.6°F18.1°C 62.5°F16.9°C 93% 4.0 mph S6.4 kmh S 7.0 mph11.3 kmh 29.81 in1009.5 mb 0.02 in0.5 mm 0.00 in0.0 mm 0.17 in4.3 mm
09:50 PM 64.5°F18.1°C 62.4°F16.9°C 93% 6.0 mph SSE9.7 kmh SSE 6.0 mph9.7 kmh 29.80 in1009.1 mb 0.02 in0.5 mm 0.00 in0.0 mm 0.17 in4.3 mm
09:55 PM 64.5°F18.1°C 62.4°F16.9°C 93% 2.0 mph SSE3.2 kmh SSE 6.0 mph9.7 kmh 29.81 in1009.5 mb 0.02 in0.5 mm 0.00 in0.0 mm 0.17 in4.3 mm
10:00 PM 64.4°F18.0°C 62.3°F16.8°C 93% 3.0 mph SSE4.8 kmh SSE 7.0 mph11.3 kmh 29.80 in1009.1 mb 0.02 in0.5 mm 0.00 in0.0 mm 0.17 in4.3 mm
10:05 PM 64.4°F18.0°C 62.3°F16.8°C 93% 3.0 mph SE4.8 kmh SE 6.0 mph9.7 kmh 29.80 in1009.1 mb 0.02 in0.5 mm 0.00 in0.0 mm 0.17 in4.3 mm
10:10 PM 64.3°F17.9°C 62.2°F16.8°C 93% 3.0 mph SE4.8 kmh SE 6.0 mph9.7 kmh 29.80 in1009.1 mb 0.02 in0.5 mm 0.00 in0.0 mm 0.17 in4.3 mm
10:15 PM 64.3°F17.9°C 62.2°F16.8°C 93% Calm Calm 5.0 mph8.0 kmh 29.80 in1009.1 mb 0.02 in0.5 mm 0.00 in0.0 mm 0.17 in4.3 mm
10:20 PM 64.2°F17.9°C 62.1°F16.7°C 93% 2.0 mph SE3.2 kmh SE 5.0 mph8.0 kmh 29.80 in1009.1 mb 0.02 in0.5 mm 0.00 in0.0 mm 0.18 in4.6 mm
10:25 PM 64.2°F17.9°C 62.1°F16.7°C 93% 2.0 mph SSE3.2 kmh SSE 5.0 mph8.0 kmh 29.80 in1009.1 mb 0.02 in0.5 mm 0.00 in0.0 mm 0.18 in4.6 mm
10:30 PM 64.2°F17.9°C 62.1°F16.7°C 93% 2.0 mph SSW3.2 kmh SSW 5.0 mph8.0 kmh 29.80 in1009.1 mb 0.02 in0.5 mm 0.00 in0.0 mm 0.18 in4.6 mm
10:35 PM 64.2°F17.9°C 62.1°F16.7°C 93% 1.0 mph S1.6 kmh S 5.0 mph8.0 kmh 29.81 in1009.5 mb 0.02 in0.5 mm 0.00 in0.0 mm 0.18 in4.6 mm
10:40 PM 64.2°F17.9°C 62.1°F16.7°C 93% 2.0 mph SW3.2 kmh SW 3.0 mph4.8 kmh 29.81 in1009.5 mb 0.02 in0.5 mm 0.00 in0.0 mm 0.18 in4.6 mm
10:45 PM 64.1°F17.8°C 62.0°F16.7°C 93% 2.0 mph SSW3.2 kmh SSW 3.0 mph4.8 kmh 29.81 in1009.5 mb 0.02 in0.5 mm 0.00 in0.0 mm 0.19 in4.8 mm
10:50 PM 64.1°F17.8°C 62.0°F16.7°C 93% 1.0 mph S1.6 kmh S 4.0 mph6.4 kmh 29.81 in1009.5 mb 0.02 in0.5 mm 0.00 in0.0 mm 0.19 in4.8 mm
10:55 PM 64.1°F17.8°C 62.0°F16.7°C 93% 1.0 mph S1.6 kmh S 4.0 mph6.4 kmh 29.81 in1009.5 mb 0.02 in0.5 mm 0.00 in0.0 mm 0.19 in4.8 mm
11:00 PM 64.0°F17.8°C 61.9°F16.6°C 93% 2.0 mph S3.2 kmh S 4.0 mph6.4 kmh 29.81 in1009.5 mb 0.02 in0.5 mm 0.00 in0.0 mm 0.19 in4.8 mm
11:05 PM 64.1°F17.8°C 62.0°F16.7°C 93% 1.0 mph S1.6 kmh S 5.0 mph8.0 kmh 29.80 in1009.1 mb 0.02 in0.5 mm 0.00 in0.0 mm 0.10 in2.5 mm
11:10 PM 64.0°F17.8°C 61.9°F16.6°C 93% 1.0 mph S1.6 kmh S 5.0 mph8.0 kmh 29.80 in1009.1 mb 0.02 in0.5 mm 0.00 in0.0 mm 0.01 in0.3 mm
11:15 PM 64.1°F17.8°C 62.0°F16.7°C 93% 3.0 mph SSW4.8 kmh SSW 5.0 mph8.0 kmh 29.80 in1009.1 mb 0.02 in0.5 mm 0.00 in0.0 mm 0.01 in0.3 mm
11:20 PM 64.1°F17.8°C 62.0°F16.7°C 93% 3.0 mph SSW4.8 kmh SSW 7.0 mph11.3 kmh 29.80 in1009.1 mb 0.02 in0.5 mm 0.00 in0.0 mm 0.01 in0.3 mm
11:25 PM 64.1°F17.8°C 62.0°F16.7°C 93% 4.0 mph SSW6.4 kmh SSW 5.0 mph8.0 kmh 29.80 in1009.1 mb 0.02 in0.5 mm 0.00 in0.0 mm 0.01 in0.3 mm
11:30 PM 64.1°F17.8°C 62.0°F16.7°C 93% 3.0 mph S4.8 kmh S 6.0 mph9.7 kmh 29.80 in1009.1 mb 0.02 in0.5 mm 0.00 in0.0 mm 0.01 in0.3 mm
11:35 PM 64.1°F17.8°C 62.0°F16.7°C 93% 1.0 mph S1.6 kmh S 5.0 mph8.0 kmh 29.81 in1009.5 mb 0.02 in0.5 mm 0.00 in0.0 mm 0.01 in0.3 mm
11:40 PM 64.2°F17.9°C 62.1°F16.7°C 93% 2.0 mph S3.2 kmh S 6.0 mph9.7 kmh 29.81 in1009.5 mb 0.02 in0.5 mm 0.00 in0.0 mm 0.02 in0.5 mm
11:45 PM 64.2°F17.9°C 62.1°F16.7°C 93% 2.0 mph SW3.2 kmh SW 6.0 mph9.7 kmh 29.81 in1009.5 mb 0.02 in0.5 mm 0.00 in0.0 mm 0.02 in0.5 mm
11:50 PM 64.2°F17.9°C 62.1°F16.7°C 93% 3.0 mph S4.8 kmh S 5.0 mph8.0 kmh 29.81 in1009.5 mb 0.02 in0.5 mm 0.00 in0.0 mm 0.02 in0.5 mm
11:55 PM 64.2°F17.9°C 62.1°F16.7°C 93% 2.0 mph SW3.2 kmh SW 6.0 mph9.7 kmh 29.82 in1009.8 mb 0.02 in0.5 mm 0.00 in0.0 mm 0.02 in0.5 mm